sensor_id;sensor_type;location;lat;lon;timestamp;P1;P2;P0
47081;PMS5003;33066;49.296;14.470;2023-02-08T00:00:08;121;96;
47081;PMS5003;33066;49.296;14.470;2023-02-08T00:02:32;111;91;
47081;PMS5003;33066;49.296;14.470;2023-02-08T00:04:57;130;100;
47081;PMS5003;33066;49.296;14.470;2023-02-08T00:07:23;127;104;
47081;PMS5003;33066;49.296;14.470;2023-02-08T00:09:48;131;99;
47081;PMS5003;33066;49.296;14.470;2023-02-08T00:12:14;127;105;
47081;PMS5003;33066;49.296;14.470;2023-02-08T00:14:40;119;89;
47081;PMS5003;33066;49.296;14.470;2023-02-08T00:17:06;114;98;
47081;PMS5003;33066;49.296;14.470;2023-02-08T00:19:31;106;91;
47081;PMS5003;33066;49.296;14.470;2023-02-08T00:21:57;148;101;
47081;PMS5003;33066;49.296;14.470;2023-02-08T00:24:23;94;86;
47081;PMS5003;33066;49.296;14.470;2023-02-08T00:26:48;75;59;
47081;PMS5003;33066;49.296;14.470;2023-02-08T00:29:13;109;87;
47081;PMS5003;33066;49.296;14.470;2023-02-08T00:31:38;112;93;
47081;PMS5003;33066;49.296;14.470;2023-02-08T00:34:04;153;104;
47081;PMS5003;33066;49.296;14.470;2023-02-08T00:36:30;197;153;
47081;PMS5003;33066;49.296;14.470;2023-02-08T00:38:56;154;124;
47081;PMS5003;33066;49.296;14.470;2023-02-08T00:41:21;117;92;
47081;PMS5003;33066;49.296;14.470;2023-02-08T00:43:47;129;93;
47081;PMS5003;33066;49.296;14.470;2023-02-08T00:46:12;118;93;
47081;PMS5003;33066;49.296;14.470;2023-02-08T00:48:37;117;91;
47081;PMS5003;33066;49.296;14.470;2023-02-08T00:51:04;115;76;
47081;PMS5003;33066;49.296;14.470;2023-02-08T00:53:28;106;93;
47081;PMS5003;33066;49.296;14.470;2023-02-08T00:55:53;102;81;
47081;PMS5003;33066;49.296;14.470;2023-02-08T00:58:19;102;74;
47081;PMS5003;33066;49.296;14.470;2023-02-08T01:00:44;139;100;
47081;PMS5003;33066;49.296;14.470;2023-02-08T01:03:10;104;87;
47081;PMS5003;33066;49.296;14.470;2023-02-08T01:05:36;121;97;
47081;PMS5003;33066;49.296;14.470;2023-02-08T01:08:01;163;136;
47081;PMS5003;33066;49.296;14.470;2023-02-08T01:10:26;198;150;
47081;PMS5003;33066;49.296;14.470;2023-02-08T01:12:51;208;155;
47081;PMS5003;33066;49.296;14.470;2023-02-08T01:15:17;206;145;
47081;PMS5003;33066;49.296;14.470;2023-02-08T01:17:42;128;98;
47081;PMS5003;33066;49.296;14.470;2023-02-08T01:20:08;117;93;
47081;PMS5003;33066;49.296;14.470;2023-02-08T01:22:32;118;93;
47081;PMS5003;33066;49.296;14.470;2023-02-08T01:24:58;117;87;
47081;PMS5003;33066;49.296;14.470;2023-02-08T01:27:23;107;96;
47081;PMS5003;33066;49.296;14.470;2023-02-08T01:29:48;100;79;
47081;PMS5003;33066;49.296;14.470;2023-02-08T01:32:14;98;83;
47081;PMS5003;33066;49.296;14.470;2023-02-08T01:34:39;88;79;
47081;PMS5003;33066;49.296;14.470;2023-02-08T01:37:05;112;88;
47081;PMS5003;33066;49.296;14.470;2023-02-08T01:39:31;103;86;
47081;PMS5003;33066;49.296;14.470;2023-02-08T01:41:56;89;74;
47081;PMS5003;33066;49.296;14.470;2023-02-08T01:46:47;81;70;
47081;PMS5003;33066;49.296;14.470;2023-02-08T01:49:14;76;65;
47081;PMS5003;33066;49.296;14.470;2023-02-08T01:51:38;104;77;
47081;PMS5003;33066;49.296;14.470;2023-02-08T01:54:04;68;56;
47081;PMS5003;33066;49.296;14.470;2023-02-08T01:56:31;91;71;
47081;PMS5003;33066;49.296;14.470;2023-02-08T01:58:55;75;64;
47081;PMS5003;33066;49.296;14.470;2023-02-08T02:01:20;71;56;
47081;PMS5003;33066;49.296;14.470;2023-02-08T02:03:45;78;64;
47081;PMS5003;33066;49.296;14.470;2023-02-08T02:06:11;76;61;
47081;PMS5003;33066;49.296;14.470;2023-02-08T02:08:37;80;68;
47081;PMS5003;33066;49.296;14.470;2023-02-08T02:11:02;92;65;
47081;PMS5003;33066;49.296;14.470;2023-02-08T02:13:28;100;77;
47081;PMS5003;33066;49.296;14.470;2023-02-08T02:15:53;91;78;
47081;PMS5003;33066;49.296;14.470;2023-02-08T02:18:20;81;75;
47081;PMS5003;33066;49.296;14.470;2023-02-08T02:20:48;91;73;
47081;PMS5003;33066;49.296;14.470;2023-02-08T02:23:16;101;83;
47081;PMS5003;33066;49.296;14.470;2023-02-08T02:28:15;79;72;
47081;PMS5003;33066;49.296;14.470;2023-02-08T02:30:31;88;67;
47081;PMS5003;33066;49.296;14.470;2023-02-08T02:32:56;93;66;
47081;PMS5003;33066;49.296;14.470;2023-02-08T02:35:18;107;77;
47081;PMS5003;33066;49.296;14.470;2023-02-08T02:37:45;100;77;
47081;PMS5003;33066;49.296;14.470;2023-02-08T02:40:11;79;65;
47081;PMS5003;33066;49.296;14.470;2023-02-08T02:42:35;84;70;
47081;PMS5003;33066;49.296;14.470;2023-02-08T02:45:03;67;63;
47081;PMS5003;33066;49.296;14.470;2023-02-08T02:47:28;89;71;
47081;PMS5003;33066;49.296;14.470;2023-02-08T02:49:51;69;56;
47081;PMS5003;33066;49.296;14.470;2023-02-08T02:52:17;78;70;
47081;PMS5003;33066;49.296;14.470;2023-02-08T02:54:43;95;68;
47081;PMS5003;33066;49.296;14.470;2023-02-08T02:57:08;73;60;
47081;PMS5003;33066;49.296;14.470;2023-02-08T02:59:33;70;58;
47081;PMS5003;33066;49.296;14.470;2023-02-08T03:01:58;55;46;
47081;PMS5003;33066;49.296;14.470;2023-02-08T03:06:53;57;44;
47081;PMS5003;33066;49.296;14.470;2023-02-08T03:09:18;55;46;
47081;PMS5003;33066;49.296;14.470;2023-02-08T03:11:40;47;40;
47081;PMS5003;33066;49.296;14.470;2023-02-08T03:14:14;55;47;
47081;PMS5003;33066;49.296;14.470;2023-02-08T03:16:31;62;52;
47081;PMS5003;33066;49.296;14.470;2023-02-08T03:18:58;57;44;
47081;PMS5003;33066;49.296;14.470;2023-02-08T03:21:23;62;49;
47081;PMS5003;33066;49.296;14.470;2023-02-08T03:23:48;55;50;
47081;PMS5003;33066;49.296;14.470;2023-02-08T03:26:14;56;45;
47081;PMS5003;33066;49.296;14.470;2023-02-08T03:28:38;57;42;
47081;PMS5003;33066;49.296;14.470;2023-02-08T03:31:04;40;34;
47081;PMS5003;33066;49.296;14.470;2023-02-08T03:33:29;70;54;
47081;PMS5003;33066;49.296;14.470;2023-02-08T03:35:55;55;44;
47081;PMS5003;33066;49.296;14.470;2023-02-08T03:38:20;60;47;
47081;PMS5003;33066;49.296;14.470;2023-02-08T03:40:45;62;53;
47081;PMS5003;33066;49.296;14.470;2023-02-08T03:43:12;55;47;
47081;PMS5003;33066;49.296;14.470;2023-02-08T03:45:36;54;47;
47081;PMS5003;33066;49.296;14.470;2023-02-08T03:48:02;76;57;
47081;PMS5003;33066;49.296;14.470;2023-02-08T03:50:28;49;40;
47081;PMS5003;33066;49.296;14.470;2023-02-08T03:52:52;54;46;
47081;PMS5003;33066;49.296;14.470;2023-02-08T03:55:19;53;40;
47081;PMS5003;33066;49.296;14.470;2023-02-08T03:57:45;63;54;
47081;PMS5003;33066;49.296;14.470;2023-02-08T04:00:09;49;49;
47081;PMS5003;33066;49.296;14.470;2023-02-08T04:02:34;46;38;
47081;PMS5003;33066;49.296;14.470;2023-02-08T04:04:59;47;42;
47081;PMS5003;33066;49.296;14.470;2023-02-08T04:07:24;64;54;
47081;PMS5003;33066;49.296;14.470;2023-02-08T04:09:50;62;48;
47081;PMS5003;33066;49.296;14.470;2023-02-08T04:13:00;91;72;
47081;PMS5003;33066;49.296;14.470;2023-02-08T04:15:25;89;65;
47081;PMS5003;33066;49.296;14.470;2023-02-08T04:17:51;84;68;
47081;PMS5003;33066;49.296;14.470;2023-02-08T04:20:16;84;72;
47081;PMS5003;33066;49.296;14.470;2023-02-08T04:22:42;65;55;
47081;PMS5003;33066;49.296;14.470;2023-02-08T04:25:08;75;58;
47081;PMS5003;33066;49.296;14.470;2023-02-08T04:27:33;74;47;
47081;PMS5003;33066;49.296;14.470;2023-02-08T04:29:59;74;69;
47081;PMS5003;33066;49.296;14.470;2023-02-08T04:32:24;84;66;
47081;PMS5003;33066;49.296;14.470;2023-02-08T04:34:50;87;73;
47081;PMS5003;33066;49.296;14.470;2023-02-08T04:37:15;72;60;
47081;PMS5003;33066;49.296;14.470;2023-02-08T04:39:41;88;69;
47081;PMS5003;33066;49.296;14.470;2023-02-08T04:42:07;88;71;
47081;PMS5003;33066;49.296;14.470;2023-02-08T04:44:32;80;62;
47081;PMS5003;33066;49.296;14.470;2023-02-08T04:46:58;79;65;
47081;PMS5003;33066;49.296;14.470;2023-02-08T04:49:23;71;63;
47081;PMS5003;33066;49.296;14.470;2023-02-08T04:51:49;61;54;
47081;PMS5003;33066;49.296;14.470;2023-02-08T04:54:14;59;53;
47081;PMS5003;33066;49.296;14.470;2023-02-08T04:56:39;57;53;
47081;PMS5003;33066;49.296;14.470;2023-02-08T04:59:05;58;51;
47081;PMS5003;33066;49.296;14.470;2023-02-08T05:01:30;66;56;
47081;PMS5003;33066;49.296;14.470;2023-02-08T05:03:56;68;59;
47081;PMS5003;33066;49.296;14.470;2023-02-08T05:06:22;64;53;
47081;PMS5003;33066;49.296;14.470;2023-02-08T05:08:47;71;53;
47081;PMS5003;33066;49.296;14.470;2023-02-08T05:11:18;61;46;
47081;PMS5003;33066;49.296;14.470;2023-02-08T05:13:39;71;55;
47081;PMS5003;33066;49.296;14.470;2023-02-08T05:16:05;62;49;
47081;PMS5003;33066;49.296;14.470;2023-02-08T05:18:30;57;52;
47081;PMS5003;33066;49.296;14.470;2023-02-08T05:20:55;78;68;
47081;PMS5003;33066;49.296;14.470;2023-02-08T05:23:20;69;55;
47081;PMS5003;33066;49.296;14.470;2023-02-08T05:25:46;61;50;
47081;PMS5003;33066;49.296;14.470;2023-02-08T05:28:12;74;66;
47081;PMS5003;33066;49.296;14.470;2023-02-08T05:30:37;73;56;
47081;PMS5003;33066;49.296;14.470;2023-02-08T05:33:02;83;66;
47081;PMS5003;33066;49.296;14.470;2023-02-08T05:35:28;63;57;
47081;PMS5003;33066;49.296;14.470;2023-02-08T05:37:53;69;50;
47081;PMS5003;33066;49.296;14.470;2023-02-08T05:40:18;71;55;
47081;PMS5003;33066;49.296;14.470;2023-02-08T05:42:44;63;53;
47081;PMS5003;33066;49.296;14.470;2023-02-08T05:45:09;77;62;
47081;PMS5003;33066;49.296;14.470;2023-02-08T05:47:35;64;57;
47081;PMS5003;33066;49.296;14.470;2023-02-08T05:49:59;72;58;
47081;PMS5003;33066;49.296;14.470;2023-02-08T05:52:25;86;65;
47081;PMS5003;33066;49.296;14.470;2023-02-08T05:54:50;64;48;
47081;PMS5003;33066;49.296;14.470;2023-02-08T05:57:15;57;46;
47081;PMS5003;33066;49.296;14.470;2023-02-08T05:59:41;80;62;
47081;PMS5003;33066;49.296;14.470;2023-02-08T06:02:06;78;66;
47081;PMS5003;33066;49.296;14.470;2023-02-08T06:04:32;85;65;
47081;PMS5003;33066;49.296;14.470;2023-02-08T06:06:58;82;65;
47081;PMS5003;33066;49.296;14.470;2023-02-08T06:09:23;106;76;
47081;PMS5003;33066;49.296;14.470;2023-02-08T06:11:49;74;63;
47081;PMS5003;33066;49.296;14.470;2023-02-08T06:14:14;80;72;
47081;PMS5003;33066;49.296;14.470;2023-02-08T06:16:39;96;70;
47081;PMS5003;33066;49.296;14.470;2023-02-08T06:19:05;68;62;
47081;PMS5003;33066;49.296;14.470;2023-02-08T06:21:30;105;79;
47081;PMS5003;33066;49.296;14.470;2023-02-08T06:23:55;94;70;
47081;PMS5003;33066;49.296;14.470;2023-02-08T06:26:21;79;71;
47081;PMS5003;33066;49.296;14.470;2023-02-08T06:28:47;82;73;
47081;PMS5003;33066;49.296;14.470;2023-02-08T06:31:12;88;69;
47081;PMS5003;33066;49.296;14.470;2023-02-08T06:33:37;95;68;
47081;PMS5003;33066;49.296;14.470;2023-02-08T06:36:03;93;74;
47081;PMS5003;33066;49.296;14.470;2023-02-08T06:38:28;71;60;
47081;PMS5003;33066;49.296;14.470;2023-02-08T06:40:53;62;54;
47081;PMS5003;33066;49.296;14.470;2023-02-08T06:43:19;56;46;
47081;PMS5003;33066;49.296;14.470;2023-02-08T06:45:45;54;49;
47081;PMS5003;33066;49.296;14.470;2023-02-08T06:48:10;58;51;
47081;PMS5003;33066;49.296;14.470;2023-02-08T06:50:36;73;56;
47081;PMS5003;33066;49.296;14.470;2023-02-08T06:53:02;66;53;
47081;PMS5003;33066;49.296;14.470;2023-02-08T06:55:26;62;55;
47081;PMS5003;33066;49.296;14.470;2023-02-08T06:57:52;66;58;
47081;PMS5003;33066;49.296;14.470;2023-02-08T07:00:18;62;50;
47081;PMS5003;33066;49.296;14.470;2023-02-08T07:02:43;57;50;
47081;PMS5003;33066;49.296;14.470;2023-02-08T07:05:08;69;60;
47081;PMS5003;33066;49.296;14.470;2023-02-08T07:07:34;57;47;
47081;PMS5003;33066;49.296;14.470;2023-02-08T07:09:59;63;55;
47081;PMS5003;33066;49.296;14.470;2023-02-08T07:12:25;90;76;
47081;PMS5003;33066;49.296;14.470;2023-02-08T07:14:50;95;76;
47081;PMS5003;33066;49.296;14.470;2023-02-08T07:17:15;93;66;
47081;PMS5003;33066;49.296;14.470;2023-02-08T07:19:41;105;86;
47081;PMS5003;33066;49.296;14.470;2023-02-08T07:22:06;113;94;
47081;PMS5003;33066;49.296;14.470;2023-02-08T07:24:32;109;91;
47081;PMS5003;33066;49.296;14.470;2023-02-08T07:26:57;101;75;
47081;PMS5003;33066;49.296;14.470;2023-02-08T07:29:23;110;90;
47081;PMS5003;33066;49.296;14.470;2023-02-08T07:31:48;101;83;
47081;PMS5003;33066;49.296;14.470;2023-02-08T07:34:14;124;103;
47081;PMS5003;33066;49.296;14.470;2023-02-08T07:36:39;172;132;
47081;PMS5003;33066;49.296;14.470;2023-02-08T07:39:05;143;115;
47081;PMS5003;33066;49.296;14.470;2023-02-08T07:41:31;125;105;
47081;PMS5003;33066;49.296;14.470;2023-02-08T07:43:58;170;135;
47081;PMS5003;33066;49.296;14.470;2023-02-08T07:46:22;133;108;
47081;PMS5003;33066;49.296;14.470;2023-02-08T07:48:47;100;79;
47081;PMS5003;33066;49.296;14.470;2023-02-08T07:51:13;91;72;
47081;PMS5003;33066;49.296;14.470;2023-02-08T07:53:38;77;62;
47081;PMS5003;33066;49.296;14.470;2023-02-08T07:56:03;83;78;
47081;PMS5003;33066;49.296;14.470;2023-02-08T07:58:29;101;83;
47081;PMS5003;33066;49.296;14.470;2023-02-08T08:00:54;102;79;
47081;PMS5003;33066;49.296;14.470;2023-02-08T08:03:19;85;70;
47081;PMS5003;33066;49.296;14.470;2023-02-08T08:05:45;73;61;
47081;PMS5003;33066;49.296;14.470;2023-02-08T08:08:10;89;66;
47081;PMS5003;33066;49.296;14.470;2023-02-08T08:10:36;92;78;
47081;PMS5003;33066;49.296;14.470;2023-02-08T08:13:02;88;76;
47081;PMS5003;33066;49.296;14.470;2023-02-08T08:15:27;83;75;
47081;PMS5003;33066;49.296;14.470;2023-02-08T08:17:53;90;74;
47081;PMS5003;33066;49.296;14.470;2023-02-08T08:20:19;89;68;
47081;PMS5003;33066;49.296;14.470;2023-02-08T08:22:44;77;65;
47081;PMS5003;33066;49.296;14.470;2023-02-08T08:25:09;91;83;
47081;PMS5003;33066;49.296;14.470;2023-02-08T08:27:34;105;86;
47081;PMS5003;33066;49.296;14.470;2023-02-08T08:30:00;85;64;
47081;PMS5003;33066;49.296;14.470;2023-02-08T08:32:25;85;70;
47081;PMS5003;33066;49.296;14.470;2023-02-08T08:34:51;96;74;
47081;PMS5003;33066;49.296;14.470;2023-02-08T08:37:16;105;69;
47081;PMS5003;33066;49.296;14.470;2023-02-08T08:39:42;94;78;
47081;PMS5003;33066;49.296;14.470;2023-02-08T08:42:08;79;64;
47081;PMS5003;33066;49.296;14.470;2023-02-08T08:44:33;77;61;
47081;PMS5003;33066;49.296;14.470;2023-02-08T08:46:59;78;64;
47081;PMS5003;33066;49.296;14.470;2023-02-08T08:49:24;70;54;
47081;PMS5003;33066;49.296;14.470;2023-02-08T08:51:49;93;77;
47081;PMS5003;33066;49.296;14.470;2023-02-08T08:54:15;397;331;
47081;PMS5003;33066;49.296;14.470;2023-02-08T08:56:40;94;81;
47081;PMS5003;33066;49.296;14.470;2023-02-08T08:59:06;158;135;
47081;PMS5003;33066;49.296;14.470;2023-02-08T09:01:31;343;274;
47081;PMS5003;33066;49.296;14.470;2023-02-08T09:03:57;100;90;
47081;PMS5003;33066;49.296;14.470;2023-02-08T09:06:22;194;166;
47081;PMS5003;33066;49.296;14.470;2023-02-08T09:08:47;91;74;
47081;PMS5003;33066;49.296;14.470;2023-02-08T09:11:13;66;56;
47081;PMS5003;33066;49.296;14.470;2023-02-08T09:13:38;116;86;
47081;PMS5003;33066;49.296;14.470;2023-02-08T09:16:04;68;57;
47081;PMS5003;33066;49.296;14.470;2023-02-08T09:18:30;125;110;
47081;PMS5003;33066;49.296;14.470;2023-02-08T09:20:55;50;41;
47081;PMS5003;33066;49.296;14.470;2023-02-08T09:23:21;460;377;
47081;PMS5003;33066;49.296;14.470;2023-02-08T09:25:46;86;73;
47081;PMS5003;33066;49.296;14.470;2023-02-08T09:28:12;127;103;
47081;PMS5003;33066;49.296;14.470;2023-02-08T09:30:37;108;85;
47081;PMS5003;33066;49.296;14.470;2023-02-08T09:33:03;202;163;
47081;PMS5003;33066;49.296;14.470;2023-02-08T09:35:28;685;591;
47081;PMS5003;33066;49.296;14.470;2023-02-08T09:37:54;1759;1254;
47081;PMS5003;33066;49.296;14.470;2023-02-08T09:42:45;960;752;
47081;PMS5003;33066;49.296;14.470;2023-02-08T09:47:35;167;132;
47081;PMS5003;33066;49.296;14.470;2023-02-08T09:50:00;80;51;
47081;PMS5003;33066;49.296;14.470;2023-02-08T09:52:26;60;42;
47081;PMS5003;33066;49.296;14.470;2023-02-08T09:54:52;52;46;
47081;PMS5003;33066;49.296;14.470;2023-02-08T09:57:17;89;66;
47081;PMS5003;33066;49.296;14.470;2023-02-08T09:59:43;81;72;
47081;PMS5003;33066;49.296;14.470;2023-02-08T10:02:13;68;53;
47081;PMS5003;33066;49.296;14.470;2023-02-08T10:04:35;44;35;
47081;PMS5003;33066;49.296;14.470;2023-02-08T10:06:59;53;49;
47081;PMS5003;33066;49.296;14.470;2023-02-08T10:09:25;63;55;
47081;PMS5003;33066;49.296;14.470;2023-02-08T10:11:52;102;87;
47081;PMS5003;33066;49.296;14.470;2023-02-08T10:14:20;65;48;
47081;PMS5003;33066;49.296;14.470;2023-02-08T10:16:46;43;38;
47081;PMS5003;33066;49.296;14.470;2023-02-08T10:19:07;47;39;
47081;PMS5003;33066;49.296;14.470;2023-02-08T10:21:34;49;38;
47081;PMS5003;33066;49.296;14.470;2023-02-08T10:24:02;44;37;
47081;PMS5003;33066;49.296;14.470;2023-02-08T10:26:24;48;42;
47081;PMS5003;33066;49.296;14.470;2023-02-08T10:31:15;55;44;
47081;PMS5003;33066;49.296;14.470;2023-02-08T10:33:40;54;43;
47081;PMS5003;33066;49.296;14.470;2023-02-08T10:36:07;257;188;
47081;PMS5003;33066;49.296;14.470;2023-02-08T10:38:31;45;41;
47081;PMS5003;33066;49.296;14.470;2023-02-08T10:40:56;46;33;
47081;PMS5003;33066;49.296;14.470;2023-02-08T10:43:23;47;42;
47081;PMS5003;33066;49.296;14.470;2023-02-08T10:45:49;38;28;
47081;PMS5003;33066;49.296;14.470;2023-02-08T10:48:13;41;35;
47081;PMS5003;33066;49.296;14.470;2023-02-08T10:50:38;31;28;
47081;PMS5003;33066;49.296;14.470;2023-02-08T10:53:03;53;37;
47081;PMS5003;33066;49.296;14.470;2023-02-08T10:55:29;43;36;
47081;PMS5003;33066;49.296;14.470;2023-02-08T10:57:54;41;33;
47081;PMS5003;33066;49.296;14.470;2023-02-08T11:00:20;39;29;
47081;PMS5003;33066;49.296;14.470;2023-02-08T11:02:45;55;50;
47081;PMS5003;33066;49.296;14.470;2023-02-08T11:05:14;41;34;
47081;PMS5003;33066;49.296;14.470;2023-02-08T11:07:36;42;32;
47081;PMS5003;33066;49.296;14.470;2023-02-08T11:12:27;57;51;
47081;PMS5003;33066;49.296;14.470;2023-02-08T11:14:52;71;46;
47081;PMS5003;33066;49.296;14.470;2023-02-08T11:17:21;43;37;
47081;PMS5003;33066;49.296;14.470;2023-02-08T11:19:43;46;37;
47081;PMS5003;33066;49.296;14.470;2023-02-08T11:22:11;38;27;
47081;PMS5003;33066;49.296;14.470;2023-02-08T11:24:36;45;33;
47081;PMS5003;33066;49.296;14.470;2023-02-08T11:27:00;36;30;
47081;PMS5003;33066;49.296;14.470;2023-02-08T11:29:26;44;34;
47081;PMS5003;33066;49.296;14.470;2023-02-08T11:31:55;37;31;
47081;PMS5003;33066;49.296;14.470;2023-02-08T11:34:18;37;28;
47081;PMS5003;33066;49.296;14.470;2023-02-08T11:36:43;44;34;
47081;PMS5003;33066;49.296;14.470;2023-02-08T11:41:33;33;29;
47081;PMS5003;33066;49.296;14.470;2023-02-08T11:44:00;44;33;
47081;PMS5003;33066;49.296;14.470;2023-02-08T11:46:25;52;41;
47081;PMS5003;33066;49.296;14.470;2023-02-08T11:48:50;64;44;
47081;PMS5003;33066;49.296;14.470;2023-02-08T11:53:40;33;29;
47081;PMS5003;33066;49.296;14.470;2023-02-08T11:56:12;69;51;
47081;PMS5003;33066;49.296;14.470;2023-02-08T11:58:31;34;28;
47081;PMS5003;33066;49.296;14.470;2023-02-08T12:00:57;46;39;
47081;PMS5003;33066;49.296;14.470;2023-02-08T12:03:22;35;30;
47081;PMS5003;33066;49.296;14.470;2023-02-08T12:05:48;45;34;
47081;PMS5003;33066;49.296;14.470;2023-02-08T12:08:14;38;35;
47081;PMS5003;33066;49.296;14.470;2023-02-08T12:10:43;47;37;
47081;PMS5003;33066;49.296;14.470;2023-02-08T12:13:07;61;49;
47081;PMS5003;33066;49.296;14.470;2023-02-08T12:15:31;41;34;
47081;PMS5003;33066;49.296;14.470;2023-02-08T12:17:58;38;37;
47081;PMS5003;33066;49.296;14.470;2023-02-08T12:20:27;38;28;
47081;PMS5003;33066;49.296;14.470;2023-02-08T12:22:47;32;26;
47081;PMS5003;33066;49.296;14.470;2023-02-08T12:25:18;33;33;
47081;PMS5003;33066;49.296;14.470;2023-02-08T12:27:38;43;33;
47081;PMS5003;33066;49.296;14.470;2023-02-08T12:30:02;29;27;
47081;PMS5003;33066;49.296;14.470;2023-02-08T12:32:30;33;29;
47081;PMS5003;33066;49.296;14.470;2023-02-08T12:34:56;39;28;
47081;PMS5003;33066;49.296;14.470;2023-02-08T12:37:20;27;20;
47081;PMS5003;33066;49.296;14.470;2023-02-08T12:39:43;27;20;
47081;PMS5003;33066;49.296;14.470;2023-02-08T12:42:13;30;26;
47081;PMS5003;33066;49.296;14.470;2023-02-08T12:44:40;24;18;
47081;PMS5003;33066;49.296;14.470;2023-02-08T12:47:01;71;64;
47081;PMS5003;33066;49.296;14.470;2023-02-08T12:49:35;749;502;
47081;PMS5003;33066;49.296;14.470;2023-02-08T12:51:52;406;292;
47081;PMS5003;33066;49.296;14.470;2023-02-08T12:54:27;431;301;
47081;PMS5003;33066;49.296;14.470;2023-02-08T12:56:42;677;534;
47081;PMS5003;33066;49.296;14.470;2023-02-08T12:59:10;366;324;
47081;PMS5003;33066;49.296;14.470;2023-02-08T13:01:33;103;94;
47081;PMS5003;33066;49.296;14.470;2023-02-08T13:03:59;65;63;
47081;PMS5003;33066;49.296;14.470;2023-02-08T13:06:24;32;23;
47081;PMS5003;33066;49.296;14.470;2023-02-08T13:08:50;30;20;
47081;PMS5003;33066;49.296;14.470;2023-02-08T13:11:16;30;22;
47081;PMS5003;33066;49.296;14.470;2023-02-08T13:13:40;28;25;
47081;PMS5003;33066;49.296;14.470;2023-02-08T13:16:06;23;23;
47081;PMS5003;33066;49.296;14.470;2023-02-08T13:18:31;251;233;
47081;PMS5003;33066;49.296;14.470;2023-02-08T13:20:57;76;71;
47081;PMS5003;33066;49.296;14.470;2023-02-08T13:23:22;38;32;
47081;PMS5003;33066;49.296;14.470;2023-02-08T13:25:47;38;36;
47081;PMS5003;33066;49.296;14.470;2023-02-08T13:28:15;62;62;
47081;PMS5003;33066;49.296;14.470;2023-02-08T13:30:37;52;48;
47081;PMS5003;33066;49.296;14.470;2023-02-08T13:33:04;111;99;
47081;PMS5003;33066;49.296;14.470;2023-02-08T13:35:28;75;62;
47081;PMS5003;33066;49.296;14.470;2023-02-08T13:37:55;46;44;
47081;PMS5003;33066;49.296;14.470;2023-02-08T13:40:19;46;39;
47081;PMS5003;33066;49.296;14.470;2023-02-08T13:42:45;87;81;
47081;PMS5003;33066;49.296;14.470;2023-02-08T13:45:19;48;36;
47081;PMS5003;33066;49.296;14.470;2023-02-08T13:47:37;59;54;
47081;PMS5003;33066;49.296;14.470;2023-02-08T13:50:01;68;64;
47081;PMS5003;33066;49.296;14.470;2023-02-08T13:59:42;40;37;
47081;PMS5003;33066;49.296;14.470;2023-02-08T14:04:34;14;9;
47081;PMS5003;33066;49.296;14.470;2023-02-08T14:07:00;14;11;
47081;PMS5003;33066;49.296;14.470;2023-02-08T14:09:26;14;6;
47081;PMS5003;33066;49.296;14.470;2023-02-08T14:11:51;10;10;
47081;PMS5003;33066;49.296;14.470;2023-02-08T14:14:16;12;9;
47081;PMS5003;33066;49.296;14.470;2023-02-08T14:16:41;13;10;
47081;PMS5003;33066;49.296;14.470;2023-02-08T14:21:33;8;6;
47081;PMS5003;33066;49.296;14.470;2023-02-08T14:23:58;11;10;
47081;PMS5003;33066;49.296;14.470;2023-02-08T14:26:23;8;7;
47081;PMS5003;33066;49.296;14.470;2023-02-08T14:28:51;10;8;
47081;PMS5003;33066;49.296;14.470;2023-02-08T14:31:14;10;8;
47081;PMS5003;33066;49.296;14.470;2023-02-08T14:33:41;27;25;
47081;PMS5003;33066;49.296;14.470;2023-02-08T14:36:07;11;11;
47081;PMS5003;33066;49.296;14.470;2023-02-08T14:38:36;15;9;
47081;PMS5003;33066;49.296;14.470;2023-02-08T14:40:57;9;7;
47081;PMS5003;33066;49.296;14.470;2023-02-08T14:43:28;11;11;
47081;PMS5003;33066;49.296;14.470;2023-02-08T14:45:48;12;12;
47081;PMS5003;33066;49.296;14.470;2023-02-08T14:48:17;11;11;
47081;PMS5003;33066;49.296;14.470;2023-02-08T14:50:40;26;22;
47081;PMS5003;33066;49.296;14.470;2023-02-08T14:53:05;23;21;
47081;PMS5003;33066;49.296;14.470;2023-02-08T14:55:30;49;48;
47081;PMS5003;33066;49.296;14.470;2023-02-08T14:57:55;21;20;
47081;PMS5003;33066;49.296;14.470;2023-02-08T15:00:21;15;14;
47081;PMS5003;33066;49.296;14.470;2023-02-08T15:02:45;27;24;
47081;PMS5003;33066;49.296;14.470;2023-02-08T15:07:36;45;39;
47081;PMS5003;33066;49.296;14.470;2023-02-08T15:10:02;14;8;
47081;PMS5003;33066;49.296;14.470;2023-02-08T15:12:27;15;14;
47081;PMS5003;33066;49.296;14.470;2023-02-08T15:14:52;15;12;
47081;PMS5003;33066;49.296;14.470;2023-02-08T15:17:20;15;11;
47081;PMS5003;33066;49.296;14.470;2023-02-08T15:19:43;21;21;
47081;PMS5003;33066;49.296;14.470;2023-02-08T15:22:17;16;15;
47081;PMS5003;33066;49.296;14.470;2023-02-08T15:24:34;26;26;
47081;PMS5003;33066;49.296;14.470;2023-02-08T15:26:59;141;117;
47081;PMS5003;33066;49.296;14.470;2023-02-08T15:29:25;326;256;
47081;PMS5003;33066;49.296;14.470;2023-02-08T15:31:50;29;21;
47081;PMS5003;33066;49.296;14.470;2023-02-08T15:34:16;13;11;
47081;PMS5003;33066;49.296;14.470;2023-02-08T15:36:43;13;11;
47081;PMS5003;33066;49.296;14.470;2023-02-08T15:39:09;27;20;
47081;PMS5003;33066;49.296;14.470;2023-02-08T15:41:32;18;17;
47081;PMS5003;33066;49.296;14.470;2023-02-08T15:44:00;15;14;
47081;PMS5003;33066;49.296;14.470;2023-02-08T15:46:22;39;35;
47081;PMS5003;33066;49.296;14.470;2023-02-08T15:48:48;16;13;
47081;PMS5003;33066;49.296;14.470;2023-02-08T15:51:13;10;10;
47081;PMS5003;33066;49.296;14.470;2023-02-08T15:53:39;16;16;
47081;PMS5003;33066;49.296;14.470;2023-02-08T15:56:03;33;33;
47081;PMS5003;33066;49.296;14.470;2023-02-08T15:58:29;10;9;
47081;PMS5003;33066;49.296;14.470;2023-02-08T16:00:55;9;7;
47081;PMS5003;33066;49.296;14.470;2023-02-08T16:03:20;12;12;
47081;PMS5003;33066;49.296;14.470;2023-02-08T16:05:47;14;12;
47081;PMS5003;33066;49.296;14.470;2023-02-08T16:08:13;19;13;
47081;PMS5003;33066;49.296;14.470;2023-02-08T16:10:38;18;17;
47081;PMS5003;33066;49.296;14.470;2023-02-08T16:13:02;11;11;
47081;PMS5003;33066;49.296;14.470;2023-02-08T16:15:32;17;13;
47081;PMS5003;33066;49.296;14.470;2023-02-08T16:17:52;28;24;
47081;PMS5003;33066;49.296;14.470;2023-02-08T16:20:20;9;9;